createdAt,value
2023-04-23T00:01:17.196Z,18.70
2023-04-23T00:04:21.409Z,17.00
2023-04-23T00:07:23.503Z,15.80
2023-04-23T00:10:26.532Z,14.50
2023-04-23T00:13:28.536Z,13.10
2023-04-23T00:16:30.642Z,14.00
2023-04-23T00:19:32.283Z,15.50
2023-04-23T00:22:33.978Z,13.40
2023-04-23T00:25:35.668Z,15.80
2023-04-23T00:28:37.609Z,13.80
2023-04-23T00:31:39.660Z,15.30
2023-04-23T00:37:44.036Z,14.40
2023-04-23T00:40:45.993Z,15.80
2023-04-23T00:43:52.531Z,17.70
2023-04-23T00:46:55.267Z,17.60
2023-04-23T00:49:58.713Z,16.80
2023-04-23T00:53:00.718Z,16.80
2023-04-23T00:56:04.826Z,19.00
2023-04-23T00:59:06.590Z,20.70
2023-04-23T01:02:08.546Z,16.90
2023-04-23T01:05:11.391Z,15.60
2023-04-23T01:08:16.017Z,14.40
2023-04-23T01:11:18.039Z,20.40
2023-04-23T01:14:20.280Z,19.00
2023-04-23T01:17:22.292Z,21.20
2023-04-23T01:20:24.063Z,26.80
2023-04-23T01:23:26.640Z,25.10
2023-04-23T01:32:33.332Z,27.70
2023-04-23T01:35:35.922Z,37.40
2023-04-23T01:38:38.356Z,42.00
2023-04-23T01:41:40.997Z,38.00
2023-04-23T01:44:43.736Z,42.70
2023-04-23T01:47:47.099Z,37.60
2023-04-23T01:50:50.778Z,24.00
2023-04-23T01:53:52.711Z,22.50
2023-04-23T01:56:55.213Z,22.40
2023-04-23T02:00:10.688Z,27.70
2023-04-23T02:03:15.919Z,30.00
2023-04-23T02:06:17.988Z,44.60
2023-04-23T02:09:19.675Z,30.70
2023-04-23T02:12:21.625Z,25.60
2023-04-23T02:15:23.317Z,24.70
2023-04-23T02:18:25.216Z,22.40
2023-04-23T02:21:27.366Z,20.60
2023-04-23T02:24:29.142Z,16.90
2023-04-23T02:27:32.717Z,16.90
2023-04-23T02:30:34.979Z,19.30
2023-04-23T02:36:38.605Z,19.80
2023-04-23T02:39:40.385Z,18.00
2023-04-23T02:42:43.867Z,18.20
2023-04-23T02:45:45.846Z,19.20
2023-04-23T02:48:47.533Z,18.40
2023-04-23T02:51:49.400Z,22.00
2023-04-23T02:54:51.257Z,22.80
2023-04-23T02:57:53.019Z,22.50
2023-04-23T03:00:56.302Z,21.90
2023-04-23T03:03:58.748Z,21.60
2023-04-23T03:07:00.672Z,25.10
2023-04-23T03:13:04.780Z,23.80
2023-04-23T03:16:06.689Z,23.60
2023-04-23T03:19:09.246Z,25.40
2023-04-23T03:22:11.181Z,31.60
2023-04-23T03:25:12.951Z,25.60
2023-04-23T03:28:14.717Z,29.00
2023-04-23T03:31:16.520Z,27.80
2023-04-23T03:37:20.286Z,25.20
2023-04-23T03:40:22.627Z,25.40
2023-04-23T03:43:27.203Z,27.60
2023-04-23T03:46:37.846Z,29.20
2023-04-23T03:49:39.811Z,27.20
2023-04-23T03:52:42.242Z,30.10
2023-04-23T03:55:47.670Z,28.80
2023-04-23T03:58:50.387Z,25.60
2023-04-23T04:01:52.216Z,27.30
2023-04-23T04:04:54.573Z,27.50
2023-04-23T04:07:58.236Z,25.80
2023-04-23T04:11:00.814Z,28.20
2023-04-23T04:14:02.545Z,25.20
2023-04-23T04:17:04.224Z,29.80
2023-04-23T04:20:10.565Z,28.70
2023-04-23T04:23:12.232Z,28.70
2023-04-23T04:26:14.703Z,27.20
2023-04-23T04:32:18.454Z,30.50
2023-04-23T04:35:20.227Z,31.10
2023-04-23T04:38:21.914Z,28.10
2023-04-23T04:41:27.740Z,30.10
2023-04-23T04:44:30.041Z,26.10
2023-04-23T04:50:34.429Z,30.50
2023-04-23T04:53:36.166Z,29.30
2023-04-23T04:56:37.929Z,34.60
2023-04-23T04:59:39.883Z,32.80
2023-04-23T05:02:41.918Z,30.40
2023-04-23T05:05:44.720Z,30.80
2023-04-23T05:08:49.244Z,31.90
2023-04-23T05:11:51.319Z,29.60
2023-04-23T05:14:54.338Z,26.50
2023-04-23T05:17:56.215Z,28.20
2023-04-23T05:20:58.518Z,25.10
2023-04-23T05:27:09.729Z,25.50
2023-04-23T05:30:11.930Z,26.20
2023-04-23T05:33:13.909Z,24.00
2023-04-23T05:36:17.427Z,24.70
2023-04-23T05:39:19.305Z,24.70
2023-04-23T05:42:21.462Z,24.60
2023-04-23T05:45:23.186Z,20.30
2023-04-23T05:48:24.978Z,20.10
2023-04-23T05:51:26.896Z,22.50
2023-04-23T05:54:28.991Z,21.40
2023-04-23T05:57:30.741Z,22.70
2023-04-23T06:00:34.841Z,19.80
2023-04-23T06:03:37.020Z,19.60
2023-04-23T06:06:39.285Z,20.40
2023-04-23T06:12:43.149Z,22.80
2023-04-23T06:15:45.110Z,18.30
2023-04-23T06:18:46.884Z,20.70
2023-04-23T06:21:50.098Z,19.10
2023-04-23T06:25:01.678Z,17.60
2023-04-23T06:28:03.921Z,21.90
2023-04-23T06:31:09.100Z,21.10
2023-04-23T06:34:10.912Z,20.70
2023-04-23T06:37:12.693Z,22.20
2023-04-23T06:40:14.656Z,18.60
2023-04-23T06:43:16.437Z,23.10
2023-04-23T06:46:53.413Z,21.00
2023-04-23T06:49:55.125Z,24.60
2023-04-23T06:52:56.944Z,19.40
2023-04-23T06:55:58.654Z,18.90
2023-04-23T06:59:00.710Z,22.60
2023-04-23T07:02:02.496Z,20.50
2023-04-23T07:05:04.722Z,17.70
2023-04-23T07:11:10.077Z,20.00
2023-04-23T07:14:11.824Z,15.20
2023-04-23T07:17:13.964Z,21.60
2023-04-23T07:20:16.079Z,17.30
2023-04-23T07:23:20.708Z,17.10
2023-04-23T07:26:27.535Z,12.50
2023-04-23T07:29:29.411Z,9.10
2023-04-23T07:32:31.414Z,12.10
2023-04-23T07:35:33.363Z,11.40
2023-04-23T07:38:35.282Z,10.90
2023-04-23T07:41:42.967Z,11.40
2023-04-23T07:44:44.965Z,7.40
2023-04-23T07:47:49.357Z,7.80
2023-04-23T07:50:51.357Z,10.70
2023-04-23T07:53:53.887Z,9.30
2023-04-23T07:56:56.848Z,7.80
2023-04-23T07:59:58.660Z,8.00
2023-04-23T08:03:00.575Z,8.10
2023-04-23T08:09:05.921Z,7.10
2023-04-23T08:12:07.706Z,9.00
2023-04-23T08:15:10.180Z,5.20
2023-04-23T08:18:14.887Z,7.70
2023-04-23T08:21:16.975Z,8.10
2023-04-23T08:27:21.132Z,6.50
2023-04-23T08:30:23.072Z,4.40
2023-04-23T08:33:24.964Z,6.30
2023-04-23T08:36:27.880Z,6.40
2023-04-23T08:39:32.354Z,6.40
2023-04-23T08:42:47.994Z,7.60
2023-04-23T08:45:49.929Z,5.90
2023-04-23T08:48:52.687Z,5.70
2023-04-23T08:51:58.403Z,4.90
2023-04-23T08:55:01.490Z,5.10
2023-04-23T08:58:05.713Z,5.00
2023-04-23T09:01:07.905Z,3.90
2023-04-23T09:04:10.598Z,5.30
2023-04-23T09:07:12.725Z,5.70
2023-04-23T09:10:17.694Z,9.10
2023-04-23T09:13:20.364Z,3.50
2023-04-23T09:16:22.117Z,7.40
2023-04-23T09:19:29.909Z,6.20
2023-04-23T09:23:00.970Z,5.10
2023-04-23T09:26:06.388Z,4.70
2023-04-23T09:29:13.173Z,5.30
2023-04-23T09:32:15.068Z,5.50
2023-04-23T09:35:20.937Z,5.80
2023-04-23T09:38:22.847Z,5.20
2023-04-23T09:41:26.468Z,5.40
2023-04-23T09:44:34.885Z,5.10
2023-04-23T09:47:48.167Z,5.90
2023-04-23T09:50:49.952Z,5.00
2023-04-23T09:53:52.519Z,4.60
2023-04-23T09:57:00.269Z,4.70
2023-04-23T10:03:15.985Z,8.20
2023-04-23T10:06:39.527Z,7.00
2023-04-23T10:09:41.421Z,5.80
2023-04-23T10:12:54.146Z,5.20
2023-04-23T10:16:07.463Z,5.70
2023-04-23T10:19:19.482Z,4.50
2023-04-23T10:22:21.830Z,5.40
2023-04-23T10:25:24.999Z,3.00
2023-04-23T10:28:31.284Z,4.50
2023-04-23T10:31:33.511Z,4.00
2023-04-23T10:34:37.528Z,4.70
2023-04-23T10:37:42.061Z,4.90
2023-04-23T10:40:48.524Z,3.90
2023-04-23T10:43:52.757Z,3.60
2023-04-23T10:46:57.401Z,3.70
2023-04-23T10:50:18.011Z,4.30
2023-04-23T10:53:22.819Z,6.10
2023-04-23T10:56:27.556Z,5.80
2023-04-23T10:59:31.913Z,5.50
2023-04-23T11:02:44.164Z,4.60
2023-04-23T11:05:46.125Z,3.70
2023-04-23T11:08:53.152Z,3.90
2023-04-23T11:11:55.119Z,5.90
2023-04-23T11:18:01.511Z,5.00
2023-04-23T11:21:04.051Z,3.80
2023-04-23T11:24:07.225Z,3.60
2023-04-23T11:27:12.442Z,3.00
2023-04-23T11:30:19.691Z,5.10
2023-04-23T11:33:21.578Z,8.70
2023-04-23T11:39:26.376Z,4.90
2023-04-23T11:42:28.876Z,5.80
2023-04-23T11:45:30.797Z,5.20
2023-04-23T11:48:34.496Z,4.40
2023-04-23T11:51:42.517Z,8.00
2023-04-23T11:54:44.230Z,9.10
2023-04-23T11:57:48.162Z,4.40
2023-04-23T12:00:57.461Z,6.10
2023-04-23T12:03:59.491Z,4.40
2023-04-23T12:07:04.331Z,5.90
2023-04-23T12:10:17.496Z,3.80
2023-04-23T12:13:23.859Z,5.90
2023-04-23T12:16:55.377Z,3.70
2023-04-23T12:19:57.101Z,3.50
2023-04-23T12:23:04.921Z,3.90
2023-04-23T12:26:14.691Z,11.30
2023-04-23T12:29:17.756Z,8.80
2023-04-23T12:32:23.860Z,6.70
2023-04-23T12:35:41.752Z,3.90
2023-04-23T12:38:43.857Z,5.50
2023-04-23T12:44:47.625Z,6.20
2023-04-23T12:47:50.340Z,6.70
2023-04-23T12:50:52.701Z,3.80
2023-04-23T12:53:54.363Z,3.40
2023-04-23T12:56:56.152Z,3.40
2023-04-23T13:02:59.720Z,4.20
2023-04-23T13:06:01.450Z,3.90
2023-04-23T13:09:04.710Z,2.90
2023-04-23T13:12:06.415Z,3.40
2023-04-23T13:15:08.608Z,3.10
2023-04-23T13:18:10.361Z,4.40
2023-04-23T13:21:12.344Z,7.00
2023-04-23T13:24:14.139Z,4.40
2023-04-23T13:27:15.799Z,6.10
2023-04-23T13:30:17.555Z,5.00
2023-04-23T13:33:20.545Z,3.80
2023-04-23T13:36:23.456Z,5.00
2023-04-23T13:39:25.346Z,5.50
2023-04-23T13:42:26.968Z,3.90
2023-04-23T13:45:28.796Z,4.30
2023-04-23T13:48:30.896Z,4.70
2023-04-23T13:51:36.130Z,5.40
2023-04-23T13:54:39.256Z,3.70
2023-04-23T13:57:41.062Z,4.20
2023-04-23T14:00:43.412Z,2.90
2023-04-23T14:03:46.657Z,5.40
2023-04-23T14:06:48.590Z,4.20
2023-04-23T14:12:55.055Z,3.90
2023-04-23T14:15:56.792Z,3.00
2023-04-23T14:18:58.512Z,4.50
2023-04-23T14:22:00.302Z,4.20
2023-04-23T14:25:08.057Z,4.20
2023-04-23T14:28:32.760Z,3.30
2023-04-23T14:31:37.497Z,2.10
2023-04-23T14:34:39.290Z,3.90
2023-04-23T14:37:44.287Z,4.50
2023-04-23T14:40:46.227Z,12.10
2023-04-23T14:46:50.550Z,4.90
2023-04-23T14:49:52.739Z,3.70
2023-04-23T14:52:54.800Z,4.10
2023-04-23T14:55:56.521Z,4.90
2023-04-23T14:58:58.250Z,4.00
2023-04-23T15:02:00.717Z,5.80
2023-04-23T15:05:02.620Z,6.10
2023-04-23T15:08:04.387Z,6.50
2023-04-23T15:11:12.481Z,3.00
2023-04-23T15:14:35.852Z,4.70
2023-04-23T15:17:37.587Z,5.50
2023-04-23T15:20:39.558Z,6.50
2023-04-23T15:23:41.625Z,3.40
2023-04-23T15:29:46.727Z,3.20
2023-04-23T15:32:48.586Z,6.00
2023-04-23T15:35:53.365Z,4.30
2023-04-23T15:38:55.174Z,3.90
2023-04-23T15:44:59.473Z,2.70
2023-04-23T15:48:01.296Z,7.30
2023-04-23T15:51:03.233Z,5.60
2023-04-23T15:54:07.519Z,3.10
2023-04-23T15:57:09.376Z,5.90
2023-04-23T16:06:16.446Z,4.20
2023-04-23T16:09:18.453Z,5.00
2023-04-23T16:12:34.679Z,5.20
2023-04-23T16:15:36.618Z,5.10
2023-04-23T16:21:40.239Z,3.80
2023-04-23T16:24:41.961Z,4.20
2023-04-23T16:27:43.994Z,6.50
2023-04-23T16:30:45.834Z,7.10
2023-04-23T16:33:47.575Z,4.80
2023-04-23T16:36:49.328Z,4.10
2023-04-23T16:39:51.086Z,5.90
2023-04-23T16:42:53.198Z,5.90
2023-04-23T16:45:55.159Z,4.90
2023-04-23T16:48:59.887Z,8.30
2023-04-23T16:52:02.908Z,6.90
2023-04-23T16:55:05.341Z,5.80
2023-04-23T16:58:09.397Z,6.90
2023-04-23T17:01:11.515Z,12.10
2023-04-23T17:04:13.470Z,5.10
2023-04-23T17:10:18.235Z,4.90
2023-04-23T17:13:20.054Z,4.80
2023-04-23T17:16:22.465Z,6.00
2023-04-23T17:19:24.291Z,7.70
2023-04-23T17:22:26.779Z,6.60
2023-04-23T17:25:28.608Z,7.90
2023-04-23T17:28:30.362Z,10.70
2023-04-23T17:31:32.259Z,8.50
2023-04-23T17:34:34.356Z,10.00
2023-04-23T17:40:39.381Z,8.50
2023-04-23T17:43:41.293Z,8.40
2023-04-23T17:46:42.997Z,8.50
2023-04-23T17:49:44.794Z,9.80
2023-04-23T17:52:46.634Z,8.70
2023-04-23T17:55:48.395Z,7.50
2023-04-23T17:58:50.602Z,10.20
2023-04-23T18:01:52.408Z,9.20
2023-04-23T18:04:54.935Z,7.60
2023-04-23T18:07:57.580Z,10.20
2023-04-23T18:10:59.740Z,11.60
2023-04-23T18:14:01.865Z,10.60
2023-04-23T18:20:06.149Z,16.00
2023-04-23T18:23:09.057Z,11.90
2023-04-23T18:26:10.805Z,14.40
2023-04-23T18:29:12.485Z,18.70
2023-04-23T18:32:24.015Z,14.90
2023-04-23T18:35:29.556Z,15.00
2023-04-23T18:38:38.376Z,15.40
2023-04-23T18:41:40.096Z,22.80
2023-04-23T18:44:42.070Z,15.60
2023-04-23T18:50:56.625Z,18.90
2023-04-23T18:54:00.925Z,17.30
2023-04-23T18:57:02.721Z,16.00
2023-04-23T19:00:05.432Z,16.70
2023-04-23T19:03:19.468Z,15.10
2023-04-23T19:06:27.577Z,14.00
2023-04-23T19:09:29.368Z,12.40
2023-04-23T19:12:31.102Z,12.10
2023-04-23T19:15:32.896Z,11.60
2023-04-23T19:18:35.365Z,11.30
2023-04-23T19:21:37.362Z,11.10
2023-04-23T19:24:39.111Z,11.00
2023-04-23T19:27:40.788Z,9.70
2023-04-23T19:30:42.726Z,13.60
2023-04-23T19:33:45.692Z,14.10
2023-04-23T19:36:47.454Z,16.80
2023-04-23T19:39:49.636Z,15.20
2023-04-23T19:45:52.961Z,16.80
2023-04-23T19:48:55.000Z,15.00
2023-04-23T19:51:57.530Z,16.90
2023-04-23T19:54:59.231Z,14.20
2023-04-23T19:58:05.539Z,14.50
2023-04-23T20:01:07.308Z,14.30
2023-04-23T20:04:09.331Z,17.60
2023-04-23T20:10:15.743Z,13.20
2023-04-23T20:13:19.982Z,12.50
2023-04-23T20:16:21.766Z,16.40
2023-04-23T20:19:26.343Z,13.10
2023-04-23T20:22:29.044Z,13.20
2023-04-23T20:25:31.422Z,11.00
2023-04-23T20:28:33.728Z,13.50
2023-04-23T20:31:35.895Z,13.90
2023-04-23T20:37:40.159Z,15.00
2023-04-23T20:40:41.839Z,17.40
2023-04-23T20:43:43.648Z,13.90
2023-04-23T20:46:45.768Z,13.00
2023-04-23T20:49:47.974Z,14.80
2023-04-23T20:52:49.758Z,16.70
2023-04-23T20:55:51.755Z,12.90
2023-04-23T20:58:53.475Z,13.00
2023-04-23T21:01:55.334Z,12.70
2023-04-23T21:04:57.138Z,13.80
2023-04-23T21:07:58.901Z,12.10
2023-04-23T21:11:01.256Z,13.50
2023-04-23T21:14:03.058Z,15.40
2023-04-23T21:17:05.117Z,18.10
2023-04-23T21:23:12.640Z,16.80
2023-04-23T21:26:14.456Z,20.60
2023-04-23T21:29:16.169Z,21.10
2023-04-23T21:32:17.910Z,16.70
2023-04-23T21:35:19.601Z,18.10
2023-04-23T21:38:21.595Z,19.60
2023-04-23T21:41:23.924Z,17.60
2023-04-23T21:47:29.741Z,16.10
2023-04-23T21:50:32.158Z,19.50
2023-04-23T21:53:33.999Z,18.30
2023-04-23T21:56:35.794Z,15.00
2023-04-23T21:59:37.577Z,17.70
2023-04-23T22:02:41.428Z,19.50
2023-04-23T22:05:43.456Z,21.30
2023-04-23T22:08:46.134Z,19.80
2023-04-23T22:12:01.005Z,25.00
2023-04-23T22:15:06.019Z,23.30
2023-04-23T22:18:07.980Z,22.70
2023-04-23T22:21:09.732Z,19.60
2023-04-23T22:24:11.468Z,20.70
2023-04-23T22:27:13.759Z,22.10
2023-04-23T22:30:15.698Z,18.90
2023-04-23T22:33:17.560Z,18.10
2023-04-23T22:36:20.561Z,19.30
2023-04-23T22:39:22.359Z,17.30
2023-04-23T22:42:24.046Z,18.60
2023-04-23T22:45:25.838Z,20.90
2023-04-23T22:48:28.092Z,19.70
2023-04-23T22:51:32.743Z,15.60
2023-04-23T22:54:34.399Z,17.00
2023-04-23T22:57:36.135Z,17.80
2023-04-23T23:00:38.249Z,18.30
2023-04-23T23:06:42.624Z,17.90
2023-04-23T23:09:44.631Z,20.30
2023-04-23T23:12:46.512Z,20.30
2023-04-23T23:15:48.252Z,23.50
2023-04-23T23:18:50.007Z,23.70
2023-04-23T23:21:51.873Z,20.10
2023-04-23T23:24:53.959Z,22.30
2023-04-23T23:27:55.784Z,23.80
2023-04-23T23:30:57.861Z,23.70
2023-04-23T23:33:59.738Z,25.00
2023-04-23T23:37:01.531Z,25.70
2023-04-23T23:40:05.043Z,28.20
2023-04-23T23:43:06.839Z,25.70
2023-04-23T23:46:09.931Z,31.20
2023-04-23T23:49:11.731Z,28.00
2023-04-23T23:52:13.514Z,27.30
2023-04-23T23:55:15.809Z,26.60
